createdAt,value
2018-06-21T00:00:26.395Z,991.13
2018-06-21T00:01:26.398Z,991.14
2018-06-21T00:02:26.399Z,991.11
2018-06-21T00:03:26.405Z,991.1
2018-06-21T00:04:26.408Z,991.12
2018-06-21T00:05:26.515Z,991.09
2018-06-21T00:06:26.418Z,991.08
2018-06-21T00:07:26.421Z,991.1
2018-06-21T00:08:26.428Z,991.06
2018-06-21T00:09:26.420Z,991.08
2018-06-21T00:10:26.424Z,991.06
2018-06-21T00:11:26.429Z,991.04
2018-06-21T00:12:26.429Z,991
2018-06-21T00:13:26.436Z,991.02
2018-06-21T00:14:26.431Z,991
2018-06-21T00:15:26.435Z,990.99
2018-06-21T00:16:26.450Z,990.95
2018-06-21T00:17:26.442Z,991
2018-06-21T00:18:26.455Z,990.96
2018-06-21T00:19:26.451Z,990.94
2018-06-21T00:20:26.450Z,990.91
2018-06-21T00:21:26.455Z,990.95
2018-06-21T00:22:26.454Z,990.91
2018-06-21T00:23:26.454Z,990.9
2018-06-21T00:24:26.460Z,990.85
2018-06-21T00:25:26.461Z,990.9
2018-06-21T00:26:26.464Z,990.85
2018-06-21T00:27:26.467Z,990.88
2018-06-21T00:28:26.474Z,990.89
2018-06-21T00:29:26.472Z,990.86
2018-06-21T00:30:26.477Z,990.85
2018-06-21T00:31:26.478Z,990.88
2018-06-21T00:32:26.484Z,990.87
2018-06-21T00:33:26.490Z,990.85
2018-06-21T00:34:26.491Z,990.85
2018-06-21T00:35:26.492Z,990.83
2018-06-21T00:36:26.490Z,990.83
2018-06-21T00:37:26.495Z,990.83
2018-06-21T00:38:26.496Z,990.83
2018-06-21T00:39:26.500Z,990.83
2018-06-21T00:40:26.502Z,990.84
2018-06-21T00:41:26.506Z,990.83
2018-06-21T00:42:26.508Z,990.82
2018-06-21T00:43:26.513Z,990.84
2018-06-21T00:44:26.513Z,990.84
2018-06-21T00:45:26.516Z,990.82
2018-06-21T00:46:26.517Z,990.84
2018-06-21T00:47:26.517Z,990.82
2018-06-21T00:48:26.520Z,990.87
2018-06-21T00:49:26.522Z,990.84
2018-06-21T00:50:26.527Z,990.85
2018-06-21T00:51:26.530Z,990.87
2018-06-21T00:52:26.537Z,990.84
2018-06-21T00:53:26.534Z,990.85
2018-06-21T00:54:26.542Z,990.82
2018-06-21T00:55:26.545Z,990.84
2018-06-21T00:56:26.547Z,990.85
2018-06-21T00:57:26.549Z,990.85
2018-06-21T00:58:26.552Z,990.82
2018-06-21T00:59:26.555Z,990.82
2018-06-21T01:00:26.557Z,990.82
2018-06-21T01:01:26.560Z,990.81
2018-06-21T01:02:26.564Z,990.82
2018-06-21T01:03:26.567Z,990.82
2018-06-21T01:04:26.569Z,990.82
2018-06-21T01:05:26.571Z,990.8
2018-06-21T01:06:26.571Z,990.81
2018-06-21T01:07:26.579Z,990.79
2018-06-21T01:08:26.578Z,990.81
2018-06-21T01:09:26.581Z,990.78
2018-06-21T01:10:26.586Z,990.76
2018-06-21T01:11:26.598Z,990.76
2018-06-21T01:12:26.591Z,990.8
2018-06-21T01:13:26.615Z,990.74
2018-06-21T01:14:26.592Z,990.71
2018-06-21T01:15:26.666Z,990.7
2018-06-21T01:16:26.596Z,990.72
2018-06-21T01:17:26.600Z,990.7
2018-06-21T01:18:26.617Z,990.69
2018-06-21T01:19:26.603Z,990.67
2018-06-21T01:20:26.609Z,990.67
2018-06-21T01:21:26.609Z,990.65
2018-06-21T01:22:26.612Z,990.66
2018-06-21T01:23:26.614Z,990.67
2018-06-21T01:24:26.618Z,990.66
2018-06-21T01:25:26.670Z,990.64
2018-06-21T01:26:26.622Z,990.69
2018-06-21T01:27:26.625Z,990.67
2018-06-21T01:28:26.625Z,990.72
2018-06-21T01:29:26.633Z,990.69
2018-06-21T01:30:26.631Z,990.69
2018-06-21T01:31:26.651Z,990.63
2018-06-21T01:32:26.636Z,990.6
2018-06-21T01:33:26.643Z,990.66
2018-06-21T01:34:26.641Z,990.63
2018-06-21T01:35:26.643Z,990.59
2018-06-21T01:36:26.645Z,990.61
2018-06-21T01:37:26.650Z,990.53
2018-06-21T01:38:26.653Z,990.56
2018-06-21T01:39:26.657Z,990.54
2018-06-21T01:40:26.666Z,990.58
2018-06-21T01:41:26.658Z,990.58
2018-06-21T01:42:26.660Z,990.58
2018-06-21T01:43:26.665Z,990.59
2018-06-21T01:44:26.679Z,990.56
2018-06-21T01:45:26.667Z,990.57
2018-06-21T01:46:26.668Z,990.58
2018-06-21T01:47:26.674Z,990.54
2018-06-21T01:48:26.677Z,990.56
2018-06-21T01:49:26.676Z,990.53
2018-06-21T01:50:26.678Z,990.57
2018-06-21T01:51:26.681Z,990.54
2018-06-21T01:52:26.685Z,990.52
2018-06-21T01:53:26.685Z,990.58
2018-06-21T01:54:26.688Z,990.54
2018-06-21T01:55:26.694Z,990.52
2018-06-21T01:56:26.695Z,990.51
2018-06-21T01:57:26.696Z,990.51
2018-06-21T01:58:26.696Z,990.53
2018-06-21T01:59:26.698Z,990.51
2018-06-21T02:00:26.703Z,990.56
2018-06-21T02:01:26.705Z,990.52
2018-06-21T02:02:26.704Z,990.54
2018-06-21T02:03:26.710Z,990.53
2018-06-21T02:04:26.711Z,990.45
2018-06-21T02:05:26.715Z,990.54
2018-06-21T02:06:26.715Z,990.52
2018-06-21T02:07:26.737Z,990.55
2018-06-21T02:08:26.722Z,990.49
2018-06-21T02:09:26.724Z,990.48
2018-06-21T02:10:26.879Z,990.49
2018-06-21T02:11:26.728Z,990.48
2018-06-21T02:12:26.782Z,990.46
2018-06-21T02:13:26.733Z,990.44
2018-06-21T02:14:26.740Z,990.42
2018-06-21T02:15:26.735Z,990.43
2018-06-21T02:16:26.738Z,990.45
2018-06-21T02:17:26.740Z,990.42
2018-06-21T02:18:26.743Z,990.42
2018-06-21T02:19:26.744Z,990.38
2018-06-21T02:20:26.753Z,990.39
2018-06-21T02:21:26.758Z,990.37
2018-06-21T02:22:26.752Z,990.32
2018-06-21T02:23:26.753Z,990.33
2018-06-21T02:24:26.756Z,990.34
2018-06-21T02:25:26.770Z,990.33
2018-06-21T02:26:26.768Z,990.32
2018-06-21T02:27:26.763Z,990.32
2018-06-21T02:28:26.763Z,990.29
2018-06-21T02:29:26.770Z,990.28
2018-06-21T02:30:26.778Z,990.26
2018-06-21T02:31:26.771Z,990.2
2018-06-21T02:32:26.783Z,990.27
2018-06-21T02:33:26.772Z,990.2
2018-06-21T02:34:26.928Z,990.2
2018-06-21T02:35:26.779Z,990.18
2018-06-21T02:36:26.781Z,990.16
2018-06-21T02:37:26.781Z,990.16
2018-06-21T02:38:26.781Z,990.12
2018-06-21T02:39:26.786Z,990.16
2018-06-21T02:40:27.737Z,990.17
2018-06-21T02:41:26.791Z,990.14
2018-06-21T02:42:26.790Z,990.15
2018-06-21T02:43:26.797Z,990.17
2018-06-21T02:44:26.797Z,990.14
2018-06-21T02:45:26.915Z,990.16
2018-06-21T02:46:26.801Z,990.21
2018-06-21T02:47:26.812Z,990.2
2018-06-21T02:48:26.811Z,990.2
2018-06-21T02:49:26.811Z,990.2
2018-06-21T02:50:26.834Z,990.21
2018-06-21T02:51:26.816Z,990.2
2018-06-21T02:52:26.809Z,990.18
2018-06-21T02:53:26.813Z,990.18
2018-06-21T02:54:26.815Z,990.2
2018-06-21T02:55:26.824Z,990.21
2018-06-21T02:56:26.819Z,990.14
2018-06-21T02:57:26.819Z,990.19
2018-06-21T02:58:26.821Z,990.18
2018-06-21T02:59:26.823Z,990.21
2018-06-21T03:00:26.834Z,990.21
2018-06-21T03:01:26.827Z,990.23
2018-06-21T03:02:26.832Z,990.2
2018-06-21T03:03:26.831Z,990.16
2018-06-21T03:04:26.837Z,990.21
2018-06-21T03:05:26.835Z,990.16
2018-06-21T03:06:26.833Z,990.21
2018-06-21T03:07:26.855Z,990.12
2018-06-21T03:08:26.838Z,990.11
2018-06-21T03:09:26.846Z,990.13
2018-06-21T03:10:26.847Z,990.11
2018-06-21T03:11:26.847Z,990.12
2018-06-21T03:12:26.846Z,990.1
2018-06-21T03:13:26.848Z,990.11
2018-06-21T03:14:26.858Z,990.12
2018-06-21T03:15:26.851Z,990.14
2018-06-21T03:16:26.861Z,990.12
2018-06-21T03:17:26.864Z,990.1
2018-06-21T03:18:26.864Z,990.11
2018-06-21T03:19:26.904Z,990.07
2018-06-21T03:20:26.868Z,990.03
2018-06-21T03:21:26.870Z,990.02
2018-06-21T03:22:26.868Z,990.07
2018-06-21T03:23:26.870Z,990.07
2018-06-21T03:24:26.868Z,990.05
2018-06-21T03:25:26.989Z,990.05
2018-06-21T03:26:26.886Z,990.02
2018-06-21T03:27:26.870Z,990.03
2018-06-21T03:28:26.872Z,989.99
2018-06-21T03:29:26.875Z,990.02
2018-06-21T03:30:26.875Z,990.06
2018-06-21T03:31:26.885Z,990.02
2018-06-21T03:32:26.878Z,990.06
2018-06-21T03:33:26.881Z,990.08
2018-06-21T03:34:26.891Z,990.11
2018-06-21T03:35:26.886Z,990.13
2018-06-21T03:36:26.889Z,990.11
2018-06-21T03:37:26.891Z,990.16
2018-06-21T03:38:26.905Z,990.12
2018-06-21T03:39:26.894Z,990.09
2018-06-21T03:40:26.898Z,990.11
2018-06-21T03:41:26.915Z,990.11
2018-06-21T03:42:26.917Z,990.12
2018-06-21T03:43:26.901Z,990.1
2018-06-21T03:44:26.902Z,990.09
2018-06-21T03:45:26.904Z,990.13
2018-06-21T03:46:26.905Z,990.12
2018-06-21T03:47:26.910Z,990.09
2018-06-21T03:48:26.911Z,990.14
2018-06-21T03:49:26.911Z,990.13
2018-06-21T03:50:26.913Z,990.12
2018-06-21T03:51:26.927Z,990.16
2018-06-21T03:52:26.917Z,990.26
2018-06-21T03:53:26.918Z,990.25
2018-06-21T03:54:26.920Z,990.26
2018-06-21T03:55:26.926Z,990.28
2018-06-21T03:56:26.926Z,990.26
2018-06-21T03:57:26.937Z,990.22
2018-06-21T03:58:26.943Z,990.17
2018-06-21T03:59:26.938Z,990.19
2018-06-21T04:00:26.942Z,990.23
2018-06-21T04:01:26.946Z,990.26
2018-06-21T04:02:26.939Z,990.38
2018-06-21T04:03:26.980Z,990.38
2018-06-21T04:04:26.945Z,990.44
2018-06-21T04:05:26.960Z,990.45
2018-06-21T04:06:26.947Z,990.45
2018-06-21T04:07:26.956Z,990.48
2018-06-21T04:08:27.047Z,990.48
2018-06-21T04:09:26.957Z,990.53
2018-06-21T04:10:26.960Z,990.53
2018-06-21T04:11:26.963Z,990.53
2018-06-21T04:12:26.968Z,990.53
2018-06-21T04:13:26.968Z,990.49
2018-06-21T04:14:26.970Z,990.49
2018-06-21T04:15:26.988Z,990.52
2018-06-21T04:16:26.976Z,990.55
2018-06-21T04:17:27.023Z,990.5
2018-06-21T04:18:26.988Z,990.49
2018-06-21T04:19:27.007Z,990.55
2018-06-21T04:20:26.996Z,990.52
2018-06-21T04:21:26.996Z,990.5
2018-06-21T04:22:27.007Z,990.5
2018-06-21T04:23:27.006Z,990.49
2018-06-21T04:24:27.021Z,990.48
2018-06-21T04:25:27.024Z,990.51
2018-06-21T04:26:27.026Z,990.52
2018-06-21T04:27:27.028Z,990.5
2018-06-21T04:28:27.029Z,990.58
2018-06-21T04:29:27.034Z,990.6
2018-06-21T04:30:27.049Z,990.54
2018-06-21T04:31:27.042Z,990.55
2018-06-21T04:32:27.065Z,990.5
2018-06-21T04:33:27.056Z,990.51
2018-06-21T04:34:27.059Z,990.55
2018-06-21T04:35:27.065Z,990.54
2018-06-21T04:36:27.067Z,990.51
2018-06-21T04:37:27.074Z,990.51
2018-06-21T04:38:27.109Z,990.46
2018-06-21T04:39:27.098Z,990.4
2018-06-21T04:40:27.094Z,990.42
2018-06-21T04:41:27.351Z,990.42
2018-06-21T04:42:27.104Z,990.42
2018-06-21T04:43:27.107Z,990.42
2018-06-21T04:44:27.113Z,990.42
2018-06-21T04:45:27.119Z,990.38
2018-06-21T04:46:27.162Z,990.4
2018-06-21T04:47:27.130Z,990.36
2018-06-21T04:48:27.139Z,990.38
2018-06-21T04:49:27.142Z,990.4
2018-06-21T04:50:27.161Z,990.44
2018-06-21T04:51:27.173Z,990.46
2018-06-21T04:52:27.161Z,990.43
2018-06-21T04:53:27.168Z,990.45
2018-06-21T04:54:27.180Z,990.41
2018-06-21T04:55:27.205Z,990.4
2018-06-21T04:56:27.190Z,990.42
2018-06-21T04:57:27.191Z,990.41
2018-06-21T04:58:27.194Z,990.37
2018-06-21T04:59:27.223Z,990.3
2018-06-21T05:00:27.208Z,990.35
2018-06-21T05:01:27.218Z,990.32
2018-06-21T05:02:27.222Z,990.37
2018-06-21T05:03:27.230Z,990.39
2018-06-21T05:04:27.234Z,990.33
2018-06-21T05:05:27.244Z,990.35
2018-06-21T05:06:27.326Z,990.36
2018-06-21T05:07:27.297Z,990.15
2018-06-21T05:08:27.262Z,990.34
2018-06-21T05:09:27.264Z,990.25
2018-06-21T05:10:27.276Z,990.28
2018-06-21T05:11:27.535Z,990.05
2018-06-21T05:12:27.286Z,990.09
2018-06-21T05:13:27.293Z,990.14
2018-06-21T05:14:27.304Z,990.3
2018-06-21T05:15:27.301Z,990.35
2018-06-21T05:16:27.356Z,990.34
2018-06-21T05:17:27.314Z,990.38
2018-06-21T05:18:27.323Z,990.36
2018-06-21T05:19:27.330Z,990.37
2018-06-21T05:20:27.387Z,990.4
2018-06-21T05:21:27.344Z,990.39
2018-06-21T05:22:27.347Z,990.39
2018-06-21T05:23:27.353Z,990.36
2018-06-21T05:24:27.360Z,990.36
2018-06-21T05:25:27.367Z,990.37
2018-06-21T05:26:27.375Z,990.34
2018-06-21T05:27:27.379Z,990.35
2018-06-21T05:28:27.386Z,990.37
2018-06-21T05:29:27.391Z,990.34
2018-06-21T05:30:27.401Z,990.33
2018-06-21T05:31:27.406Z,990.17
2018-06-21T05:32:27.413Z,990.3
2018-06-21T05:33:27.423Z,990.36
2018-06-21T05:34:27.431Z,990.35
2018-06-21T05:35:27.437Z,990.32
2018-06-21T05:36:27.447Z,990.16
2018-06-21T05:37:27.466Z,990.36
2018-06-21T05:38:27.458Z,990.36
2018-06-21T05:39:27.465Z,990.38
2018-06-21T05:40:27.475Z,990.36
2018-06-21T05:41:30.693Z,990.4
2018-06-21T05:42:27.495Z,990.4
2018-06-21T05:43:27.495Z,990.41
2018-06-21T05:44:27.543Z,990.38
2018-06-21T05:45:27.511Z,990.33
2018-06-21T05:46:27.529Z,990.34
2018-06-21T05:47:27.529Z,990.33
2018-06-21T05:48:27.530Z,990.33
2018-06-21T05:49:27.539Z,990.37
2018-06-21T05:50:27.545Z,990.34
2018-06-21T05:51:27.555Z,990.32
2018-06-21T05:52:27.562Z,990.41
2018-06-21T05:53:27.569Z,990.39
2018-06-21T05:54:27.580Z,990.39
2018-06-21T05:55:27.593Z,990.37
2018-06-21T05:56:27.592Z,990.35
2018-06-21T05:57:27.611Z,990.39
2018-06-21T05:58:27.617Z,990.38
2018-06-21T05:59:27.625Z,990.42
2018-06-21T06:00:27.629Z,990.45
2018-06-21T06:01:27.635Z,990.39
2018-06-21T06:02:27.640Z,990.4
2018-06-21T06:03:27.652Z,990.39
2018-06-21T06:04:27.658Z,990.39
2018-06-21T06:05:27.685Z,990.37
2018-06-21T06:06:27.678Z,990.36
2018-06-21T06:07:27.682Z,990.38
2018-06-21T06:08:27.713Z,990.33
2018-06-21T06:09:27.705Z,990.32
2018-06-21T06:10:27.709Z,990.34
2018-06-21T06:11:27.718Z,990.32
2018-06-21T06:12:27.728Z,990.28
2018-06-21T06:13:27.739Z,990.31
2018-06-21T06:24:19.344Z,990.25
2018-06-21T06:25:19.349Z,990.25
2018-06-21T06:26:19.355Z,990.26
2018-06-21T06:27:19.360Z,990.2
2018-06-21T06:28:19.372Z,990.24
2018-06-21T06:29:19.377Z,990.24
2018-06-21T06:30:19.385Z,990.23
2018-06-21T06:31:19.391Z,990.24
2018-06-21T06:32:19.413Z,990.24
2018-06-21T06:33:19.412Z,990.26
2018-06-21T06:34:19.421Z,990.23
2018-06-21T06:35:19.438Z,990.2
2018-06-21T06:36:19.438Z,990.14
2018-06-21T06:37:19.451Z,990.16
2018-06-21T06:38:19.466Z,990.18
2018-06-21T06:39:19.465Z,990.18
2018-06-21T06:40:19.500Z,990.18
2018-06-21T06:41:19.483Z,990.17
2018-06-21T06:42:19.493Z,990.13
2018-06-21T06:43:19.514Z,990.12
2018-06-21T06:44:19.519Z,990.1
2018-06-21T06:45:19.528Z,990.08
2018-06-21T06:46:19.598Z,990.07
2018-06-21T06:47:19.548Z,990.02
2018-06-21T06:48:19.550Z,990.02
2018-06-21T06:49:19.570Z,990.05
2018-06-21T06:50:19.580Z,990.03
2018-06-21T06:51:19.581Z,990.03
2018-06-21T06:52:19.597Z,990.01
2018-06-21T06:53:19.621Z,989.98
2018-06-21T06:54:19.617Z,990.02
2018-06-21T06:55:19.624Z,989.96
2018-06-21T06:56:19.635Z,989.98
2018-06-21T06:57:19.652Z,989.91
2018-06-21T06:58:19.655Z,989.92
2018-06-21T06:59:19.666Z,989.86
2018-06-21T07:00:19.678Z,989.9
2018-06-21T07:01:19.686Z,989.92
2018-06-21T07:02:19.696Z,989.91
2018-06-21T07:03:19.707Z,989.91
2018-06-21T07:04:19.717Z,989.87
2018-06-21T07:05:19.759Z,989.84
2018-06-21T07:06:19.737Z,989.83
2018-06-21T07:07:19.750Z,989.81
2018-06-21T07:08:19.843Z,989.89
2018-06-21T07:09:19.767Z,989.9
2018-06-21T07:10:19.858Z,989.92
2018-06-21T07:11:19.783Z,989.9
2018-06-21T07:12:19.791Z,989.89
2018-06-21T07:13:19.802Z,989.85
2018-06-21T07:14:19.889Z,989.9
2018-06-21T07:15:19.823Z,989.88
2018-06-21T07:16:19.830Z,989.86
2018-06-21T07:17:19.846Z,989.88
2018-06-21T07:18:19.854Z,989.85
2018-06-21T07:19:19.860Z,989.83
2018-06-21T07:20:19.885Z,989.86
2018-06-21T07:21:19.882Z,989.77
2018-06-21T07:22:19.896Z,989.79
2018-06-21T07:23:19.910Z,989.79
2018-06-21T07:24:19.912Z,989.74
2018-06-21T07:25:19.923Z,989.77
2018-06-21T07:26:19.934Z,989.78
2018-06-21T07:27:19.947Z,989.76
2018-06-21T07:28:19.996Z,989.76
2018-06-21T07:29:19.963Z,989.79
2018-06-21T07:30:19.976Z,989.8
2018-06-21T07:31:19.986Z,989.8
2018-06-21T07:32:19.992Z,989.8
2018-06-21T07:33:20.005Z,989.82
2018-06-21T07:34:20.015Z,989.73
2018-06-21T07:35:20.101Z,989.81
2018-06-21T07:36:20.037Z,989.75
2018-06-21T07:37:20.048Z,989.76
2018-06-21T07:38:20.080Z,989.72
2018-06-21T07:39:20.066Z,989.7
2018-06-21T07:40:20.105Z,989.74
2018-06-21T07:41:20.095Z,989.75
2018-06-21T07:42:20.099Z,989.78
2018-06-21T07:43:20.111Z,989.75
2018-06-21T07:44:20.120Z,989.76
2018-06-21T07:45:20.163Z,989.73
2018-06-21T07:46:20.147Z,989.79
2018-06-21T07:47:20.166Z,989.82
2018-06-21T07:48:20.163Z,989.76
2018-06-21T07:49:20.175Z,989.78
2018-06-21T07:50:20.182Z,989.78
2018-06-21T07:51:20.196Z,989.79
2018-06-21T07:52:20.216Z,989.81
2018-06-21T07:53:20.216Z,989.73
2018-06-21T07:54:20.228Z,989.77
2018-06-21T07:55:20.256Z,989.82
2018-06-21T07:56:20.251Z,989.78
2018-06-21T07:57:20.263Z,989.79
2018-06-21T07:58:20.273Z,989.79
2018-06-21T07:59:20.287Z,989.77
2018-06-21T08:00:20.336Z,989.8
2018-06-21T08:01:20.310Z,989.79
2018-06-21T08:02:20.316Z,989.76
2018-06-21T08:03:20.326Z,989.75
2018-06-21T08:04:20.338Z,989.77
2018-06-21T08:05:20.370Z,989.76
2018-06-21T08:06:20.360Z,989.72
2018-06-21T08:07:20.369Z,989.76
2018-06-21T08:08:20.390Z,989.76
2018-06-21T08:09:20.392Z,989.78
2018-06-21T08:10:20.422Z,989.77
2018-06-21T08:11:20.413Z,989.77
2018-06-21T08:12:20.437Z,989.75
2018-06-21T08:13:20.434Z,989.81
2018-06-21T08:14:20.596Z,989.8
2018-06-21T08:15:20.456Z,989.81
2018-06-21T08:16:20.471Z,989.79
2018-06-21T08:17:20.476Z,989.78
2018-06-21T08:18:20.486Z,989.78
2018-06-21T08:19:20.498Z,989.76
2018-06-21T08:20:20.574Z,989.74
2018-06-21T08:21:20.516Z,989.75
2018-06-21T08:22:20.530Z,989.82
2018-06-21T08:23:20.582Z,989.73
2018-06-21T08:24:20.551Z,989.77
2018-06-21T08:25:20.627Z,989.85
2018-06-21T08:26:20.570Z,989.92
2018-06-21T08:27:20.582Z,989.84
2018-06-21T08:28:20.594Z,989.92
2018-06-21T08:29:20.600Z,989.96
2018-06-21T08:30:20.646Z,989.92
2018-06-21T08:31:20.620Z,989.81
2018-06-21T08:32:20.699Z,989.91
2018-06-21T08:33:20.643Z,989.89
2018-06-21T08:34:20.654Z,989.97
2018-06-21T08:35:20.676Z,989.93
2018-06-21T08:36:20.672Z,989.91
2018-06-21T08:37:20.688Z,989.92
2018-06-21T08:38:20.687Z,989.91
2018-06-21T08:39:20.695Z,989.89
2018-06-21T08:40:20.705Z,989.94
2018-06-21T08:41:20.711Z,990.09
2018-06-21T08:42:20.719Z,990.08
2018-06-21T08:43:20.727Z,990.11
2018-06-21T08:44:20.998Z,990.07
2018-06-21T08:45:20.759Z,990.13
2018-06-21T08:46:20.752Z,990.3
2018-06-21T08:47:20.757Z,990.16
2018-06-21T08:48:20.774Z,990.15
2018-06-21T08:49:20.769Z,990.28
2018-06-21T08:50:20.779Z,990.29
2018-06-21T08:51:20.792Z,990.15
2018-06-21T08:52:20.789Z,990.25
2018-06-21T08:53:20.799Z,990.32
2018-06-21T08:54:20.806Z,990.31
2018-06-21T08:55:20.811Z,990.22
2018-06-21T08:56:20.819Z,990.24
2018-06-21T08:57:20.823Z,990.15
2018-06-21T08:58:20.863Z,990.27
2018-06-21T08:59:20.852Z,990.26
2018-06-21T09:00:20.852Z,990.18
2018-06-21T09:01:20.854Z,990.17
2018-06-21T09:02:20.864Z,990.27
2018-06-21T09:03:20.872Z,990.14
2018-06-21T09:04:20.881Z,990.12
2018-06-21T09:05:20.926Z,990.19
2018-06-21T09:06:20.896Z,990.16
2018-06-21T09:07:20.903Z,990.19
2018-06-21T09:08:20.909Z,990.18
2018-06-21T09:09:20.955Z,990.16
2018-06-21T09:10:21.020Z,990.14
2018-06-21T09:11:20.933Z,990.19
2018-06-21T09:12:20.942Z,990.23
2018-06-21T09:13:20.946Z,990.24
2018-06-21T09:14:20.954Z,990.27
2018-06-21T09:15:21.024Z,990.26
2018-06-21T09:16:20.977Z,990.29
2018-06-21T09:17:20.975Z,990.22
2018-06-21T09:18:21.010Z,990.25
2018-06-21T09:19:20.988Z,990.28
2018-06-21T09:20:20.998Z,990.25
2018-06-21T09:21:21.006Z,990.28
2018-06-21T09:22:21.012Z,990.42
2018-06-21T09:23:21.032Z,990.36
2018-06-21T09:24:21.025Z,990.29
2018-06-21T09:25:21.044Z,990.24
2018-06-21T09:26:21.043Z,990.32
2018-06-21T09:27:21.049Z,990.36
2018-06-21T09:28:21.054Z,990.37
2018-06-21T09:29:21.070Z,990.4
2018-06-21T09:30:21.065Z,990.41
2018-06-21T09:31:21.072Z,990.46
2018-06-21T09:32:21.075Z,990.43
2018-06-21T09:33:21.161Z,990.48
2018-06-21T09:34:21.086Z,990.5
2018-06-21T09:35:21.107Z,990.5
2018-06-21T09:36:21.106Z,990.51
2018-06-21T09:37:21.108Z,990.54
2018-06-21T09:38:21.118Z,990.51
2018-06-21T09:39:21.124Z,990.53
2018-06-21T09:40:21.159Z,990.56
2018-06-21T09:41:21.137Z,990.53
2018-06-21T09:42:21.151Z,990.41
2018-06-21T09:43:21.144Z,990.53
2018-06-21T09:44:21.148Z,990.52
2018-06-21T09:45:21.154Z,990.55
2018-06-21T09:46:21.167Z,990.55
2018-06-21T09:47:21.172Z,990.55
2018-06-21T09:48:21.181Z,990.52
2018-06-21T09:49:21.190Z,990.47
2018-06-21T09:50:21.333Z,990.5
2018-06-21T09:51:21.200Z,990.57
2018-06-21T09:52:21.210Z,990.59
2018-06-21T09:53:21.208Z,990.69
2018-06-21T09:54:21.215Z,990.75
2018-06-21T09:55:21.282Z,990.77
2018-06-21T09:56:21.232Z,990.78
2018-06-21T09:57:21.239Z,990.76
2018-06-21T09:58:21.241Z,990.77
2018-06-21T09:59:21.246Z,990.81
2018-06-21T10:00:21.260Z,990.84
2018-06-21T10:01:21.265Z,990.85
2018-06-21T10:02:21.272Z,990.9
2018-06-21T10:03:21.270Z,990.89
2018-06-21T10:04:21.287Z,990.8
2018-06-21T10:05:21.289Z,990.98
2018-06-21T10:06:21.288Z,990.93
2018-06-21T10:07:21.300Z,990.96
2018-06-21T10:08:21.299Z,991.03
2018-06-21T10:09:21.307Z,990.9
2018-06-21T10:10:21.367Z,990.9
2018-06-21T10:11:21.324Z,990.8
2018-06-21T10:12:21.324Z,990.84
2018-06-21T10:13:21.331Z,990.84
2018-06-21T10:14:23.198Z,990.8
2018-06-21T10:15:21.453Z,990.81
2018-06-21T10:16:21.345Z,990.81
2018-06-21T10:17:21.357Z,990.82
2018-06-21T10:18:21.363Z,990.78
2018-06-21T10:19:21.376Z,990.79
2018-06-21T10:20:21.377Z,990.8
2018-06-21T10:21:21.373Z,990.72
2018-06-21T10:22:21.381Z,990.75
2018-06-21T10:53:31.172Z,990.52
2018-06-21T10:54:31.174Z,990.54
2018-06-21T10:55:31.177Z,990.57
2018-06-21T10:56:31.175Z,990.45
2018-06-21T10:57:31.184Z,990.51
2018-06-21T10:58:31.186Z,990.6
2018-06-21T10:59:31.195Z,990.65
2018-06-21T11:00:31.194Z,990.6
2018-06-21T11:01:31.205Z,990.64
2018-06-21T11:02:31.213Z,990.6
2018-06-21T11:03:31.210Z,990.65
2018-06-21T11:04:31.224Z,990.73
2018-06-21T11:05:31.234Z,990.74
2018-06-21T11:06:31.237Z,990.73
2018-06-21T11:07:31.240Z,990.7
2018-06-21T11:08:31.288Z,990.67
2018-06-21T11:09:31.243Z,990.67
2018-06-21T11:10:31.250Z,990.58
2018-06-21T11:11:31.255Z,990.56
2018-06-21T11:12:31.274Z,990.59
2018-06-21T11:13:31.270Z,990.56
2018-06-21T11:14:31.282Z,990.58
2018-06-21T11:15:31.281Z,990.65
2018-06-21T11:16:31.283Z,990.68
2018-06-21T11:17:31.289Z,990.69
2018-06-21T11:18:31.295Z,990.69
2018-06-21T11:19:31.300Z,990.69
2018-06-21T11:20:31.307Z,990.68
2018-06-21T11:21:31.417Z,990.69
2018-06-21T11:22:31.317Z,990.75
2018-06-21T11:23:31.322Z,990.7
2018-06-21T11:24:31.330Z,990.68
2018-06-21T11:25:31.342Z,990.69
2018-06-21T11:26:31.345Z,990.63
2018-06-21T11:27:31.348Z,990.65
2018-06-21T11:28:31.354Z,990.59
2018-06-21T11:29:31.360Z,990.62
2018-06-21T11:30:31.366Z,990.56
2018-06-21T11:31:31.372Z,990.56
2018-06-21T11:32:31.377Z,990.57
2018-06-21T11:33:32.188Z,990.59
2018-06-21T11:34:31.390Z,990.57
2018-06-21T11:35:31.397Z,990.53
2018-06-21T11:36:31.407Z,990.64
2018-06-21T11:37:31.406Z,990.63
2018-06-21T11:38:31.418Z,990.59
2018-06-21T11:39:31.426Z,990.58
2018-06-21T11:40:31.426Z,990.59
2018-06-21T11:41:31.441Z,990.65
2018-06-21T11:42:31.438Z,990.57
2018-06-21T11:43:31.446Z,990.55
2018-06-21T11:44:31.450Z,990.68
2018-06-21T11:45:31.457Z,990.69
2018-06-21T11:46:31.461Z,990.65
2018-06-21T11:47:31.472Z,990.62
2018-06-21T11:48:31.474Z,990.62
2018-06-21T11:49:31.482Z,990.59
2018-06-21T11:50:31.485Z,990.52
2018-06-21T11:51:31.492Z,990.61
2018-06-21T11:52:31.502Z,990.58
2018-06-21T11:53:31.506Z,990.61
2018-06-21T11:54:31.513Z,990.5
2018-06-21T11:55:31.518Z,990.51
2018-06-21T11:56:31.522Z,990.58
2018-06-21T11:57:31.540Z,990.55
2018-06-21T11:58:31.536Z,990.49
2018-06-21T11:59:31.542Z,990.53
2018-06-21T12:00:31.555Z,990.63
2018-06-21T12:01:31.557Z,990.63
2018-06-21T12:02:31.561Z,990.64
2018-06-21T12:03:31.567Z,990.53
2018-06-21T12:04:31.593Z,990.52
2018-06-21T12:05:31.580Z,990.37
2018-06-21T12:06:31.585Z,990.34
2018-06-21T12:07:31.609Z,990.37
2018-06-21T12:08:31.602Z,990.37
2018-06-21T12:09:31.612Z,990.48
2018-06-21T12:10:31.673Z,990.38
2018-06-21T12:11:31.615Z,990.32
2018-06-21T12:12:31.621Z,990.34
2018-06-21T12:13:31.628Z,990.39
2018-06-21T12:14:31.637Z,990.28
2018-06-21T12:15:31.644Z,990.32
2018-06-21T12:16:31.645Z,990.36
2018-06-21T12:17:31.652Z,990.35
2018-06-21T12:18:31.657Z,990.23
2018-06-21T12:19:31.674Z,990.41
2018-06-21T12:20:31.672Z,990.41
2018-06-21T12:21:31.679Z,990.3
2018-06-21T12:22:31.682Z,990.31
2018-06-21T12:23:31.689Z,990.32
2018-06-21T12:24:31.692Z,990.29
2018-06-21T12:25:31.705Z,990.27
2018-06-21T12:26:31.709Z,990.22
2018-06-21T12:27:31.712Z,990.22
2018-06-21T12:28:31.721Z,990.28
2018-06-21T12:29:31.724Z,990.26
2018-06-21T12:30:31.738Z,990.32
2018-06-21T12:31:31.738Z,990.23
2018-06-21T12:32:31.745Z,990.13
2018-06-21T12:33:31.750Z,990.23
2018-06-21T12:34:31.756Z,990.31
2018-06-21T12:35:31.758Z,990.19
2018-06-21T12:36:31.767Z,990.24
2018-06-21T12:37:31.771Z,990.21
2018-06-21T12:38:31.781Z,990.23
2018-06-21T12:39:31.781Z,990.25
2018-06-21T12:40:31.789Z,990.15
2018-06-21T12:41:31.793Z,990.35
2018-06-21T12:42:31.804Z,990.29
2018-06-21T12:43:31.821Z,990.25
2018-06-21T12:44:31.812Z,990.36
2018-06-21T12:45:31.819Z,990.26
2018-06-21T12:46:31.821Z,990.26
2018-06-21T12:47:31.828Z,990.41
2018-06-21T12:48:31.838Z,990.4
2018-06-21T12:49:31.840Z,990.3
2018-06-21T12:50:31.847Z,990.3
2018-06-21T12:51:31.852Z,990.29
2018-06-21T12:52:31.862Z,990.17
2018-06-21T12:53:31.862Z,990.24
2018-06-21T12:54:31.869Z,990.23
2018-06-21T12:55:31.877Z,990.21
2018-06-21T12:56:31.888Z,990.19
2018-06-21T12:57:31.887Z,990.21
2018-06-21T12:58:31.895Z,990.24
2018-06-21T12:59:31.912Z,990.18
2018-06-21T13:00:31.910Z,990.13
2018-06-21T13:01:31.911Z,990.15
2018-06-21T13:02:31.926Z,990.16
2018-06-21T13:03:31.924Z,990.24
2018-06-21T13:04:31.931Z,990.3
2018-06-21T13:05:31.992Z,990.27
2018-06-21T13:06:31.960Z,990.27
2018-06-21T13:07:31.957Z,990.25
2018-06-21T13:08:31.957Z,990.25
2018-06-21T13:09:31.968Z,990.31
2018-06-21T13:10:31.967Z,990.33
2018-06-21T13:11:31.976Z,990.41